createdAt,value
2022-08-25T00:02:06.372Z,0.10
2022-08-25T00:04:35.456Z,0.10
2022-08-25T00:07:04.866Z,0.03
2022-08-25T00:09:32.900Z,0.05
2022-08-25T00:12:00.162Z,0.10
2022-08-25T00:14:32.770Z,0.10
2022-08-25T00:16:59.972Z,0.00
2022-08-25T00:19:32.162Z,0.10
2022-08-25T00:21:59.753Z,0.10
2022-08-25T00:24:26.993Z,0.10
2022-08-25T00:26:55.315Z,0.05
2022-08-25T00:29:23.337Z,0.00
2022-08-25T00:31:50.503Z,0.00
2022-08-25T00:34:21.693Z,0.40
2022-08-25T00:36:51.667Z,0.10
2022-08-25T00:39:21.147Z,0.10
2022-08-25T00:41:48.699Z,0.00
2022-08-25T00:44:18.854Z,0.00
2022-08-25T00:46:50.556Z,0.00
2022-08-25T00:49:39.398Z,0.10
2022-08-25T00:52:09.673Z,0.10
2022-08-25T00:54:36.707Z,0.00
2022-08-25T00:57:04.946Z,0.00
2022-08-25T00:59:32.093Z,0.20
2022-08-25T01:01:59.424Z,0.10
2022-08-25T01:04:26.792Z,0.10
2022-08-25T01:06:54.022Z,0.10
2022-08-25T01:09:21.053Z,0.35
2022-08-25T01:11:48.140Z,0.43
2022-08-25T01:14:16.559Z,0.32
2022-08-25T01:16:43.875Z,0.10
2022-08-25T01:19:15.216Z,0.10
2022-08-25T01:21:47.136Z,0.10
2022-08-25T01:24:34.192Z,0.10
2022-08-25T01:27:01.456Z,0.10
2022-08-25T01:29:29.012Z,0.20
2022-08-25T01:32:00.946Z,0.10
2022-08-25T01:34:30.231Z,0.10
2022-08-25T01:36:57.940Z,0.10
2022-08-25T01:39:26.085Z,0.10
2022-08-25T01:42:05.656Z,0.10
2022-08-25T01:44:33.469Z,0.10
2022-08-25T01:47:00.499Z,0.10
2022-08-25T01:49:27.549Z,0.30
2022-08-25T01:52:05.501Z,0.20
2022-08-25T01:54:34.134Z,0.10
2022-08-25T01:57:01.713Z,0.20
2022-08-25T01:59:28.786Z,0.10
2022-08-25T02:01:59.998Z,0.10
2022-08-25T02:04:32.431Z,0.10
2022-08-25T02:07:01.091Z,0.20
2022-08-25T02:09:28.609Z,0.20
2022-08-25T02:11:56.906Z,0.10
2022-08-25T02:14:24.079Z,0.30
2022-08-25T02:16:52.360Z,0.10
2022-08-25T02:20:34.688Z,0.10
2022-08-25T02:23:01.773Z,0.38
2022-08-25T02:25:28.994Z,0.13
2022-08-25T02:27:56.115Z,0.60
2022-08-25T02:30:23.344Z,0.25
2022-08-25T02:32:55.730Z,0.50
2022-08-25T02:35:22.772Z,0.20
2022-08-25T02:37:52.603Z,0.35
2022-08-25T02:40:24.188Z,0.30
2022-08-25T02:44:08.922Z,0.28
2022-08-25T02:46:36.306Z,0.35
2022-08-25T02:49:04.577Z,0.30
2022-08-25T02:51:32.055Z,0.20
2022-08-25T02:53:59.629Z,0.20
2022-08-25T02:56:26.770Z,0.40
2022-08-25T02:58:55.410Z,0.77
2022-08-25T03:01:22.519Z,0.30
2022-08-25T03:03:56.295Z,0.43
2022-08-25T03:06:24.372Z,0.50
2022-08-25T03:08:51.960Z,0.20
2022-08-25T03:11:19.113Z,0.20
2022-08-25T03:13:46.265Z,0.60
2022-08-25T03:16:13.523Z,0.20
2022-08-25T03:18:41.467Z,0.40
2022-08-25T03:21:10.276Z,0.20
2022-08-25T03:23:37.330Z,0.50
2022-08-25T03:26:22.977Z,0.10
2022-08-25T03:28:50.131Z,0.13
2022-08-25T03:31:17.423Z,0.20
2022-08-25T03:33:44.737Z,0.35
2022-08-25T03:36:12.424Z,0.20
2022-08-25T03:38:39.946Z,0.30
2022-08-25T03:41:21.488Z,0.22
2022-08-25T03:43:48.887Z,0.22
2022-08-25T03:46:30.249Z,0.20
2022-08-25T03:48:58.056Z,0.17
2022-08-25T03:51:34.572Z,0.35
2022-08-25T03:54:02.102Z,0.45
2022-08-25T03:56:29.248Z,0.32
2022-08-25T03:58:56.485Z,0.20
2022-08-25T04:01:23.777Z,0.20
2022-08-25T04:03:50.909Z,0.10
2022-08-25T04:06:18.444Z,0.20
2022-08-25T04:08:45.824Z,0.30
2022-08-25T04:11:17.787Z,0.13
2022-08-25T04:13:46.650Z,0.17
2022-08-25T04:16:15.191Z,0.20
2022-08-25T04:18:42.699Z,0.40
2022-08-25T04:21:10.169Z,0.32
2022-08-25T04:23:38.183Z,0.63
2022-08-25T04:26:16.593Z,0.47
2022-08-25T04:28:47.810Z,0.60
2022-08-25T04:31:15.512Z,0.40
2022-08-25T04:33:42.797Z,0.32
2022-08-25T04:36:12.546Z,0.45
2022-08-25T04:38:40.672Z,0.52
2022-08-25T04:41:08.318Z,0.40
2022-08-25T04:43:35.861Z,0.40
2022-08-25T04:46:31.138Z,0.30
2022-08-25T04:48:58.906Z,0.77
2022-08-25T04:51:31.386Z,0.88
2022-08-25T04:54:00.480Z,0.47
2022-08-25T04:56:28.175Z,0.95
2022-08-25T04:58:55.698Z,0.80
2022-08-25T05:01:24.402Z,0.47
2022-08-25T05:03:56.896Z,0.65
2022-08-25T05:06:24.185Z,1.60
2022-08-25T05:08:51.584Z,1.30
2022-08-25T05:11:18.982Z,2.42
2022-08-25T05:13:51.338Z,1.48
2022-08-25T05:16:19.632Z,0.82
2022-08-25T05:18:47.014Z,0.70
2022-08-25T05:21:16.091Z,1.27
2022-08-25T05:23:43.633Z,0.40
2022-08-25T05:26:15.396Z,0.70
2022-08-25T05:28:44.848Z,0.70
2022-08-25T05:31:12.735Z,1.20
2022-08-25T05:33:47.122Z,0.60
2022-08-25T05:38:43.328Z,1.30
2022-08-25T05:41:16.318Z,1.40
2022-08-25T05:43:44.278Z,2.10
2022-08-25T05:46:11.992Z,1.58
2022-08-25T05:48:39.284Z,2.05
2022-08-25T05:51:07.714Z,2.00
2022-08-25T05:53:35.687Z,2.58
2022-08-25T05:56:02.999Z,2.92
2022-08-25T05:58:30.469Z,3.10
2022-08-25T06:00:58.298Z,3.63
2022-08-25T06:03:25.381Z,3.20
2022-08-25T06:05:52.561Z,3.63
2022-08-25T06:08:22.075Z,3.28
2022-08-25T06:10:52.479Z,3.70
2022-08-25T06:13:26.987Z,3.20
2022-08-25T06:15:59.800Z,3.17
2022-08-25T06:18:26.933Z,2.95
2022-08-25T06:20:54.333Z,3.72
2022-08-25T06:23:21.465Z,2.83
2022-08-25T06:25:52.566Z,3.10
2022-08-25T06:28:20.948Z,2.45
2022-08-25T06:30:48.195Z,3.05
2022-08-25T06:33:15.624Z,2.65
2022-08-25T06:35:43.308Z,3.13
2022-08-25T06:38:11.074Z,3.35
2022-08-25T06:40:38.468Z,3.63
2022-08-25T06:43:08.897Z,2.72
2022-08-25T06:45:36.038Z,2.85
2022-08-25T06:48:03.399Z,3.22
2022-08-25T06:50:30.424Z,3.05
2022-08-25T06:52:57.487Z,2.45
2022-08-25T06:55:24.709Z,2.33
2022-08-25T06:57:55.178Z,3.35
2022-08-25T07:00:23.132Z,3.35
2022-08-25T07:02:58.571Z,2.85
2022-08-25T07:05:33.788Z,3.63
2022-08-25T07:08:07.810Z,2.65
2022-08-25T07:10:34.855Z,3.00
2022-08-25T07:13:03.766Z,2.92
2022-08-25T07:15:30.909Z,2.55
2022-08-25T07:17:58.113Z,2.92
2022-08-25T07:22:53.094Z,3.20
2022-08-25T07:25:20.336Z,3.47
2022-08-25T07:27:47.465Z,2.70
2022-08-25T07:30:14.698Z,2.78
2022-08-25T07:32:44.753Z,3.40
2022-08-25T07:35:18.925Z,3.50
2022-08-25T07:37:50.158Z,3.25
2022-08-25T07:40:31.889Z,2.75
2022-08-25T07:43:01.228Z,2.70
2022-08-25T07:45:30.807Z,2.08
2022-08-25T07:47:59.829Z,1.30
2022-08-25T07:50:27.720Z,1.55
2022-08-25T07:53:04.774Z,1.17
2022-08-25T07:55:31.991Z,1.98
2022-08-25T07:58:01.780Z,1.65
2022-08-25T08:00:30.248Z,1.30
2022-08-25T08:02:57.671Z,1.10
2022-08-25T08:05:26.117Z,1.50
2022-08-25T08:07:54.597Z,1.17
2022-08-25T08:10:54.156Z,1.55
2022-08-25T08:13:10.277Z,1.38
2022-08-25T08:15:37.911Z,1.50
2022-08-25T08:18:05.284Z,1.25
2022-08-25T08:20:42.636Z,1.92
2022-08-25T08:23:11.418Z,1.08
2022-08-25T08:25:38.527Z,0.82
2022-08-25T08:28:07.068Z,0.80
2022-08-25T08:30:36.712Z,1.00
2022-08-25T08:33:11.309Z,1.48
2022-08-25T08:35:40.952Z,0.98
2022-08-25T08:38:14.695Z,0.95
2022-08-25T08:41:13.044Z,1.20
2022-08-25T08:43:41.834Z,0.98
2022-08-25T08:46:09.295Z,1.05
2022-08-25T08:48:47.327Z,1.17
2022-08-25T08:51:33.045Z,1.45
2022-08-25T08:54:07.291Z,1.08
2022-08-25T08:56:45.337Z,1.30
2022-08-25T08:59:30.146Z,0.70
2022-08-25T09:02:02.728Z,0.90
2022-08-25T09:04:38.418Z,0.88
2022-08-25T09:07:13.639Z,0.88
2022-08-25T09:09:43.536Z,1.48
2022-08-25T09:12:34.909Z,1.75
2022-08-25T09:15:59.846Z,1.77
2022-08-25T09:18:40.380Z,1.63
2022-08-25T09:21:27.214Z,1.00
2022-08-25T09:24:21.648Z,0.80
2022-08-25T09:26:58.837Z,1.13
2022-08-25T09:29:34.859Z,0.50
2022-08-25T09:32:02.096Z,0.70
2022-08-25T09:34:32.417Z,0.55
2022-08-25T09:37:00.431Z,1.10
2022-08-25T09:39:28.061Z,1.05
2022-08-25T09:42:00.246Z,0.47
2022-08-25T09:44:27.612Z,0.50
2022-08-25T09:47:25.473Z,0.40
2022-08-25T09:50:05.269Z,0.40
2022-08-25T09:52:42.527Z,0.25
2022-08-25T09:55:13.611Z,1.05
2022-08-25T09:57:46.256Z,0.57
2022-08-25T10:00:18.547Z,0.40
2022-08-25T10:03:07.853Z,0.82
2022-08-25T10:05:38.710Z,0.65
2022-08-25T10:08:42.915Z,0.40
2022-08-25T10:11:14.720Z,0.30
2022-08-25T10:13:44.395Z,0.20
2022-08-25T10:16:35.704Z,0.13
2022-08-25T10:19:11.775Z,0.13
2022-08-25T10:21:42.748Z,0.10
2022-08-25T10:24:11.558Z,0.43
2022-08-25T10:26:47.701Z,0.20
2022-08-25T10:29:23.552Z,0.10
2022-08-25T10:31:57.855Z,0.30
2022-08-25T10:34:44.393Z,0.13
2022-08-25T10:37:21.089Z,0.20
2022-08-25T10:40:25.449Z,0.10
2022-08-25T10:42:58.742Z,0.10
2022-08-25T10:45:46.024Z,0.50
2022-08-25T10:48:35.299Z,0.25
2022-08-25T10:51:06.767Z,0.10
2022-08-25T10:53:39.690Z,0.10
2022-08-25T10:56:21.854Z,0.13
2022-08-25T10:59:06.221Z,0.10
2022-08-25T11:01:53.711Z,0.10
2022-08-25T11:04:37.948Z,0.20
2022-08-25T11:07:27.106Z,0.10
2022-08-25T11:09:56.227Z,0.10
2022-08-25T11:12:33.633Z,0.10
2022-08-25T11:15:05.659Z,0.20
2022-08-25T11:17:41.955Z,0.20
2022-08-25T11:20:19.816Z,0.10
2022-08-25T11:23:13.080Z,0.10
2022-08-25T11:25:45.880Z,0.20
2022-08-25T11:28:14.783Z,0.52
2022-08-25T11:30:42.023Z,0.10
2022-08-25T11:33:13.090Z,0.10
2022-08-25T11:35:43.166Z,0.10
2022-08-25T11:38:23.037Z,0.10
2022-08-25T11:41:24.899Z,0.10
2022-08-25T11:44:16.544Z,0.10
2022-08-25T11:46:43.831Z,0.10
2022-08-25T11:49:32.955Z,0.00
2022-08-25T11:52:03.048Z,0.10
2022-08-25T11:54:35.010Z,0.00
2022-08-25T11:57:32.641Z,0.00
2022-08-25T12:00:08.792Z,0.10
2022-08-25T12:02:47.591Z,0.10
2022-08-25T12:05:21.997Z,0.20
2022-08-25T12:08:12.581Z,0.10
2022-08-25T12:11:11.273Z,0.10
2022-08-25T12:13:49.772Z,0.20
2022-08-25T12:16:39.181Z,0.03
2022-08-25T12:19:31.626Z,0.10
2022-08-25T12:22:26.945Z,0.10
2022-08-25T12:25:11.540Z,0.10
2022-08-25T12:28:09.374Z,0.00
2022-08-25T12:30:47.283Z,0.10
2022-08-25T12:33:30.057Z,0.00
2022-08-25T12:35:59.789Z,0.00
2022-08-25T12:38:47.290Z,0.00
2022-08-25T12:41:22.200Z,0.00
2022-08-25T12:43:53.356Z,0.00
2022-08-25T12:46:23.999Z,0.00
2022-08-25T12:49:12.400Z,0.05
2022-08-25T12:51:54.256Z,0.00
2022-08-25T12:54:36.886Z,0.00
2022-08-25T12:57:29.565Z,0.00
2022-08-25T13:00:05.835Z,0.00
2022-08-25T13:02:53.753Z,0.08
2022-08-25T13:05:58.624Z,0.00
2022-08-25T13:08:46.801Z,0.10
2022-08-25T13:11:21.592Z,0.10
2022-08-25T13:14:14.856Z,0.10
2022-08-25T13:16:51.426Z,0.10
2022-08-25T13:19:21.303Z,0.00
2022-08-25T13:21:48.906Z,0.00
2022-08-25T13:24:27.334Z,0.00
2022-08-25T13:27:24.873Z,0.05
2022-08-25T13:29:54.027Z,0.00
2022-08-25T13:32:32.066Z,0.00
2022-08-25T13:35:23.915Z,0.00
2022-08-25T13:37:56.579Z,0.00
2022-08-25T13:41:02.673Z,0.00
2022-08-25T13:43:37.784Z,0.00
2022-08-25T13:46:06.220Z,0.05
2022-08-25T13:48:49.676Z,0.00
2022-08-25T13:51:21.549Z,0.00
2022-08-25T13:54:24.308Z,0.00
2022-08-25T13:56:52.720Z,0.00
2022-08-25T13:59:27.474Z,0.00
2022-08-25T14:01:55.379Z,0.32
2022-08-25T14:04:51.360Z,0.00
2022-08-25T14:07:34.224Z,0.00
2022-08-25T14:10:05.109Z,0.00
2022-08-25T14:12:46.449Z,0.00
2022-08-25T14:15:41.740Z,0.00
2022-08-25T14:18:19.604Z,0.00
2022-08-25T14:20:50.920Z,0.10
2022-08-25T14:23:20.105Z,0.10
2022-08-25T14:25:48.964Z,0.00
2022-08-25T14:28:20.825Z,0.00
2022-08-25T14:30:51.918Z,0.00
2022-08-25T14:33:21.036Z,0.00
2022-08-25T14:35:49.816Z,0.00
2022-08-25T14:38:18.593Z,0.10
2022-08-25T14:40:46.130Z,0.05
2022-08-25T14:43:16.147Z,0.08
2022-08-25T14:45:45.623Z,0.00
2022-08-25T14:48:35.213Z,0.00
2022-08-25T14:51:14.513Z,0.00
2022-08-25T14:53:44.703Z,0.00
2022-08-25T14:56:30.489Z,0.00
2022-08-25T14:59:01.016Z,0.00
2022-08-25T15:01:30.109Z,0.00
2022-08-25T15:04:04.107Z,0.00
2022-08-25T15:06:31.754Z,0.00
2022-08-25T15:09:14.046Z,0.00
2022-08-25T15:11:43.106Z,0.10
2022-08-25T15:14:12.211Z,0.00
2022-08-25T15:16:49.297Z,0.10
2022-08-25T15:19:19.328Z,0.00
2022-08-25T15:21:47.192Z,0.08
2022-08-25T15:24:17.394Z,0.00
2022-08-25T15:26:57.703Z,0.00
2022-08-25T15:29:29.420Z,0.10
2022-08-25T15:31:57.166Z,0.00
2022-08-25T15:34:24.353Z,0.08
2022-08-25T15:36:52.997Z,0.10
2022-08-25T15:39:21.577Z,0.10
2022-08-25T15:41:51.707Z,0.10
2022-08-25T15:44:18.995Z,0.90
2022-08-25T15:46:49.598Z,0.00
2022-08-25T15:49:20.697Z,0.00
2022-08-25T15:51:52.711Z,0.10
2022-08-25T15:54:21.970Z,0.10
2022-08-25T15:56:50.205Z,0.10
2022-08-25T15:59:19.489Z,0.00
2022-08-25T16:01:53.406Z,0.00
2022-08-25T16:04:22.649Z,0.00
2022-08-25T16:06:51.948Z,0.00
2022-08-25T16:09:22.808Z,0.00
2022-08-25T16:11:56.587Z,0.10
2022-08-25T16:14:24.455Z,0.08
2022-08-25T16:16:58.438Z,0.05
2022-08-25T16:19:30.201Z,0.10
2022-08-25T16:21:58.275Z,0.00
2022-08-25T16:24:25.981Z,0.00
2022-08-25T16:26:55.989Z,0.00
2022-08-25T16:29:23.938Z,0.00
2022-08-25T16:31:54.890Z,0.10
2022-08-25T16:34:24.570Z,0.05
2022-08-25T16:36:55.765Z,0.05
2022-08-25T16:39:23.906Z,0.00
2022-08-25T16:41:51.935Z,0.10
2022-08-25T16:44:22.990Z,0.05
2022-08-25T16:46:54.665Z,0.10
2022-08-25T16:49:24.512Z,0.10
2022-08-25T16:51:52.253Z,0.17
2022-08-25T16:54:44.309Z,0.20
2022-08-25T16:57:12.210Z,0.40
2022-08-25T16:59:39.711Z,0.28
2022-08-25T17:02:06.945Z,0.30
2022-08-25T17:04:34.317Z,0.40
2022-08-25T17:07:01.983Z,0.20
2022-08-25T17:09:29.897Z,0.30
2022-08-25T17:11:57.244Z,0.30
2022-08-25T17:14:24.817Z,0.35
2022-08-25T17:16:54.810Z,0.28
2022-08-25T17:19:23.558Z,0.70
2022-08-25T17:21:50.981Z,0.40
2022-08-25T17:24:18.376Z,0.40
2022-08-25T17:26:47.169Z,0.47
2022-08-25T17:29:14.374Z,0.65
2022-08-25T17:31:44.368Z,0.60
2022-08-25T17:34:12.925Z,0.68
2022-08-25T17:36:45.307Z,0.60
2022-08-25T17:39:14.081Z,0.50
2022-08-25T17:41:43.181Z,0.60
2022-08-25T17:44:10.207Z,0.85
2022-08-25T17:46:39.146Z,1.17
2022-08-25T17:49:11.844Z,0.77
2022-08-25T17:51:39.032Z,0.80
2022-08-25T17:54:06.348Z,0.70
2022-08-25T17:56:34.058Z,1.35
2022-08-25T17:59:02.329Z,1.02
2022-08-25T18:01:32.348Z,1.17
2022-08-25T18:03:59.841Z,0.82
2022-08-25T18:06:31.776Z,0.88
2022-08-25T18:09:00.025Z,1.50
2022-08-25T18:11:28.836Z,1.00
2022-08-25T18:13:57.618Z,1.52
2022-08-25T18:16:24.840Z,0.95
2022-08-25T18:18:52.781Z,1.50
2022-08-25T18:21:20.733Z,1.27
2022-08-25T18:23:49.627Z,1.17
2022-08-25T18:26:16.916Z,1.38
2022-08-25T18:28:49.348Z,0.75
2022-08-25T18:31:19.878Z,1.40
2022-08-25T18:33:47.312Z,1.00
2022-08-25T18:36:21.196Z,1.77
2022-08-25T18:39:07.888Z,0.98
2022-08-25T18:41:39.480Z,1.45
2022-08-25T18:44:07.630Z,1.40
2022-08-25T18:46:36.894Z,1.02
2022-08-25T18:49:04.598Z,1.40
2022-08-25T18:51:32.798Z,1.20
2022-08-25T18:54:01.455Z,1.60
2022-08-25T18:56:29.118Z,1.05
2022-08-25T18:58:56.698Z,1.52
2022-08-25T19:01:24.052Z,1.33
2022-08-25T19:03:51.287Z,1.38
2022-08-25T19:06:19.130Z,1.80
2022-08-25T19:08:46.900Z,1.92
2022-08-25T19:11:14.472Z,1.67
2022-08-25T19:13:44.510Z,1.83
2022-08-25T19:16:20.369Z,1.73
2022-08-25T19:18:48.964Z,1.52
2022-08-25T19:21:22.496Z,1.75
2022-08-25T19:23:51.352Z,1.50
2022-08-25T19:26:19.498Z,1.60
2022-08-25T19:28:48.838Z,1.73
2022-08-25T19:31:21.041Z,1.42
2022-08-25T19:33:49.183Z,1.55
2022-08-25T19:36:16.942Z,1.20
2022-08-25T19:38:46.016Z,0.70
2022-08-25T19:41:14.578Z,1.02
2022-08-25T19:43:55.839Z,1.00
2022-08-25T19:46:33.162Z,1.00
2022-08-25T19:49:36.917Z,0.75
2022-08-25T19:52:10.470Z,1.45
2022-08-25T19:54:44.281Z,0.70
2022-08-25T19:57:12.219Z,1.02
2022-08-25T19:59:43.231Z,1.33
2022-08-25T20:02:16.129Z,1.42
2022-08-25T20:04:49.331Z,1.63
2022-08-25T20:07:23.770Z,1.48
2022-08-25T20:09:54.476Z,1.40
2022-08-25T20:12:22.514Z,1.20
2022-08-25T20:14:50.290Z,1.10
2022-08-25T20:17:24.584Z,1.02
2022-08-25T20:19:55.547Z,1.40
2022-08-25T20:22:26.385Z,1.48
2022-08-25T20:24:56.214Z,1.20
2022-08-25T20:27:32.990Z,1.83
2022-08-25T20:30:02.635Z,1.60
2022-08-25T20:32:32.523Z,1.50
2022-08-25T20:35:09.003Z,0.73
2022-08-25T20:37:36.442Z,2.10
2022-08-25T20:40:04.232Z,1.83
2022-08-25T20:42:31.555Z,1.23
2022-08-25T20:44:59.077Z,1.10
2022-08-25T20:47:26.140Z,1.42
2022-08-25T20:49:53.507Z,1.17
2022-08-25T20:52:20.842Z,0.60
2022-08-25T20:54:50.453Z,0.70
2022-08-25T20:57:19.452Z,0.73
2022-08-25T20:59:53.332Z,0.80
2022-08-25T21:02:20.546Z,0.93
2022-08-25T21:04:50.076Z,0.70
2022-08-25T21:07:18.574Z,0.63
2022-08-25T21:09:49.402Z,0.82
2022-08-25T21:12:19.734Z,1.33
2022-08-25T21:14:46.910Z,0.88
2022-08-25T21:17:14.652Z,0.73
2022-08-25T21:19:42.053Z,0.57
2022-08-25T21:22:10.784Z,0.47
2022-08-25T21:24:38.466Z,0.47
2022-08-25T21:27:06.142Z,0.30
2022-08-25T21:29:33.564Z,0.38
2022-08-25T21:32:00.995Z,0.63
2022-08-25T21:34:29.135Z,0.30
2022-08-25T21:36:58.081Z,0.45
2022-08-25T21:39:28.178Z,0.50
2022-08-25T21:41:56.637Z,0.35
2022-08-25T21:44:24.186Z,0.40
2022-08-25T21:46:54.100Z,0.60
2022-08-25T21:49:23.103Z,0.38
2022-08-25T21:52:00.896Z,0.57
2022-08-25T21:54:29.646Z,0.73
2022-08-25T21:56:59.788Z,0.32
2022-08-25T21:59:30.008Z,0.20
2022-08-25T22:02:00.155Z,0.47
2022-08-25T22:04:27.997Z,0.60
2022-08-25T22:06:55.805Z,0.50
2022-08-25T22:09:25.850Z,0.73
2022-08-25T22:11:53.258Z,0.77
2022-08-25T22:14:23.410Z,0.43
2022-08-25T22:16:52.011Z,0.98
2022-08-25T22:19:19.316Z,0.77
2022-08-25T22:21:48.734Z,0.30
2022-08-25T22:24:15.879Z,0.40
2022-08-25T22:26:43.376Z,0.40
2022-08-25T22:29:25.572Z,0.60
2022-08-25T22:31:58.568Z,0.60
2022-08-25T22:34:30.508Z,0.93
2022-08-25T22:37:03.781Z,0.85
2022-08-25T22:39:31.334Z,0.50
2022-08-25T22:41:59.831Z,1.02
2022-08-25T22:44:26.931Z,0.80
2022-08-25T22:46:54.112Z,0.98
2022-08-25T22:49:21.822Z,1.00
2022-08-25T22:51:49.135Z,0.70
2022-08-25T22:54:16.290Z,1.02
2022-08-25T22:56:43.702Z,0.52
2022-08-25T22:59:11.980Z,0.93
2022-08-25T23:01:39.737Z,1.00
2022-08-25T23:04:07.499Z,0.95
2022-08-25T23:06:34.592Z,1.10
2022-08-25T23:09:02.898Z,1.50
2022-08-25T23:11:29.953Z,1.52
2022-08-25T23:14:00.988Z,1.92
2022-08-25T23:16:28.613Z,1.67
2022-08-25T23:18:55.699Z,2.15
2022-08-25T23:21:42.481Z,1.38
2022-08-25T23:24:11.122Z,1.23
2022-08-25T23:26:42.496Z,1.50
2022-08-25T23:29:18.639Z,1.27
2022-08-25T23:31:47.021Z,1.63
2022-08-25T23:34:16.086Z,1.40
2022-08-25T23:36:43.794Z,0.82
2022-08-25T23:39:11.307Z,0.98
2022-08-25T23:41:38.405Z,1.75
2022-08-25T23:44:06.754Z,1.33
2022-08-25T23:46:36.685Z,0.82
2022-08-25T23:49:04.602Z,1.20
2022-08-25T23:51:33.648Z,0.70
2022-08-25T23:54:05.677Z,1.10
2022-08-25T23:56:34.765Z,1.08
2022-08-25T23:59:02.596Z,0.98
